sensor_id;sensor_type;location;lat;lon;timestamp;temperature;humidity
10390;DHT22;5241;47.830;12.972;2022-07-17T00:01:34;14.40;99.90
10390;DHT22;5241;47.830;12.972;2022-07-17T00:03:59;14.40;99.90
10390;DHT22;5241;47.830;12.972;2022-07-17T00:06:25;14.30;99.90
10390;DHT22;5241;47.830;12.972;2022-07-17T00:08:50;14.30;99.90
10390;DHT22;5241;47.830;12.972;2022-07-17T00:11:16;14.20;99.90
10390;DHT22;5241;47.830;12.972;2022-07-17T00:13:41;14.20;99.90
10390;DHT22;5241;47.830;12.972;2022-07-17T00:16:08;14.10;99.90
10390;DHT22;5241;47.830;12.972;2022-07-17T00:18:33;14.00;99.90
10390;DHT22;5241;47.830;12.972;2022-07-17T00:20:59;14.00;99.90
10390;DHT22;5241;47.830;12.972;2022-07-17T00:23:24;13.90;99.90
10390;DHT22;5241;47.830;12.972;2022-07-17T00:25:50;13.90;99.90
10390;DHT22;5241;47.830;12.972;2022-07-17T00:28:15;14.00;99.90
10390;DHT22;5241;47.830;12.972;2022-07-17T00:30:41;13.90;99.90
10390;DHT22;5241;47.830;12.972;2022-07-17T00:33:06;13.90;99.90
10390;DHT22;5241;47.830;12.972;2022-07-17T00:35:32;13.90;99.90
10390;DHT22;5241;47.830;12.972;2022-07-17T00:37:57;13.90;99.90
10390;DHT22;5241;47.830;12.972;2022-07-17T00:40:24;13.80;99.90
10390;DHT22;5241;47.830;12.972;2022-07-17T00:42:51;13.80;99.90
10390;DHT22;5241;47.830;12.972;2022-07-17T00:45:16;13.70;99.90
10390;DHT22;5241;47.830;12.972;2022-07-17T00:47:55;13.70;99.90
10390;DHT22;5241;47.830;12.972;2022-07-17T00:50:23;13.70;99.90
10390;DHT22;5241;47.830;12.972;2022-07-17T00:52:49;13.70;99.90
10390;DHT22;5241;47.830;12.972;2022-07-17T00:55:16;13.70;99.90
10390;DHT22;5241;47.830;12.972;2022-07-17T00:57:43;13.70;99.90
10390;DHT22;5241;47.830;12.972;2022-07-17T01:00:10;13.80;99.90
10390;DHT22;5241;47.830;12.972;2022-07-17T01:02:37;13.70;99.90
10390;DHT22;5241;47.830;12.972;2022-07-17T01:05:04;13.70;99.90
10390;DHT22;5241;47.830;12.972;2022-07-17T01:07:30;13.70;99.90
10390;DHT22;5241;47.830;12.972;2022-07-17T01:09:55;13.70;99.90
10390;DHT22;5241;47.830;12.972;2022-07-17T01:12:22;13.60;99.90
10390;DHT22;5241;47.830;12.972;2022-07-17T01:14:50;13.60;99.90
10390;DHT22;5241;47.830;12.972;2022-07-17T01:17:16;13.60;99.90
10390;DHT22;5241;47.830;12.972;2022-07-17T01:19:42;13.50;99.90
10390;DHT22;5241;47.830;12.972;2022-07-17T01:22:08;13.50;99.90
10390;DHT22;5241;47.830;12.972;2022-07-17T01:24:33;13.50;99.90
10390;DHT22;5241;47.830;12.972;2022-07-17T01:26:59;13.50;99.90
10390;DHT22;5241;47.830;12.972;2022-07-17T01:29:24;13.50;99.90
10390;DHT22;5241;47.830;12.972;2022-07-17T01:31:50;13.50;99.90
10390;DHT22;5241;47.830;12.972;2022-07-17T01:34:15;13.40;99.90
10390;DHT22;5241;47.830;12.972;2022-07-17T01:36:41;13.40;99.90
10390;DHT22;5241;47.830;12.972;2022-07-17T01:39:07;13.30;99.90
10390;DHT22;5241;47.830;12.972;2022-07-17T01:41:36;13.30;99.90
10390;DHT22;5241;47.830;12.972;2022-07-17T01:44:02;13.30;99.90
10390;DHT22;5241;47.830;12.972;2022-07-17T01:46:29;13.40;99.90
10390;DHT22;5241;47.830;12.972;2022-07-17T01:48:55;13.30;99.90
10390;DHT22;5241;47.830;12.972;2022-07-17T01:51:20;13.30;99.90
10390;DHT22;5241;47.830;12.972;2022-07-17T01:53:46;13.20;99.90
10390;DHT22;5241;47.830;12.972;2022-07-17T01:56:12;13.20;99.90
10390;DHT22;5241;47.830;12.972;2022-07-17T01:58:38;13.30;99.90
10390;DHT22;5241;47.830;12.972;2022-07-17T02:01:04;13.30;99.90
10390;DHT22;5241;47.830;12.972;2022-07-17T02:03:29;13.40;99.90
10390;DHT22;5241;47.830;12.972;2022-07-17T02:05:55;13.40;99.90
10390;DHT22;5241;47.830;12.972;2022-07-17T02:08:20;13.50;99.90
10390;DHT22;5241;47.830;12.972;2022-07-17T02:10:46;13.50;99.90
10390;DHT22;5241;47.830;12.972;2022-07-17T02:13:11;13.60;99.90
10390;DHT22;5241;47.830;12.972;2022-07-17T02:15:37;13.60;99.90
10390;DHT22;5241;47.830;12.972;2022-07-17T02:18:03;13.60;99.90
10390;DHT22;5241;47.830;12.972;2022-07-17T02:20:29;13.60;99.90
10390;DHT22;5241;47.830;12.972;2022-07-17T02:22:54;13.50;99.90
10390;DHT22;5241;47.830;12.972;2022-07-17T02:25:20;13.40;99.90
10390;DHT22;5241;47.830;12.972;2022-07-17T02:27:46;13.40;99.90
10390;DHT22;5241;47.830;12.972;2022-07-17T02:30:16;13.40;99.90
10390;DHT22;5241;47.830;12.972;2022-07-17T02:32:42;13.30;99.90
10390;DHT22;5241;47.830;12.972;2022-07-17T02:35:09;13.30;99.90
10390;DHT22;5241;47.830;12.972;2022-07-17T02:37:35;13.20;99.90
10390;DHT22;5241;47.830;12.972;2022-07-17T02:40:01;13.10;99.90
10390;DHT22;5241;47.830;12.972;2022-07-17T02:42:28;13.10;99.90
10390;DHT22;5241;47.830;12.972;2022-07-17T02:44:55;13.10;99.90
10390;DHT22;5241;47.830;12.972;2022-07-17T02:47:32;13.00;99.90
10390;DHT22;5241;47.830;12.972;2022-07-17T02:49:59;13.00;99.90
10390;DHT22;5241;47.830;12.972;2022-07-17T02:52:27;13.00;99.90
10390;DHT22;5241;47.830;12.972;2022-07-17T02:54:53;12.90;99.90
10390;DHT22;5241;47.830;12.972;2022-07-17T02:57:18;12.90;99.90
10390;DHT22;5241;47.830;12.972;2022-07-17T02:59:45;12.90;99.90
10390;DHT22;5241;47.830;12.972;2022-07-17T03:02:10;13.00;99.90
10390;DHT22;5241;47.830;12.972;2022-07-17T03:04:36;13.00;99.90
10390;DHT22;5241;47.830;12.972;2022-07-17T03:07:01;13.00;99.90
10390;DHT22;5241;47.830;12.972;2022-07-17T03:09:27;13.00;99.90
10390;DHT22;5241;47.830;12.972;2022-07-17T03:11:53;13.00;99.90
10390;DHT22;5241;47.830;12.972;2022-07-17T03:14:18;13.00;99.90
10390;DHT22;5241;47.830;12.972;2022-07-17T03:16:44;12.90;99.90
10390;DHT22;5241;47.830;12.972;2022-07-17T03:19:09;12.90;99.90
10390;DHT22;5241;47.830;12.972;2022-07-17T03:21:35;12.90;99.90
10390;DHT22;5241;47.830;12.972;2022-07-17T03:24:00;12.90;99.90
10390;DHT22;5241;47.830;12.972;2022-07-17T03:26:26;12.80;99.90
10390;DHT22;5241;47.830;12.972;2022-07-17T03:28:52;12.80;99.90
10390;DHT22;5241;47.830;12.972;2022-07-17T03:31:17;12.70;99.90
10390;DHT22;5241;47.830;12.972;2022-07-17T03:33:43;12.70;99.90
10390;DHT22;5241;47.830;12.972;2022-07-17T03:36:08;12.70;99.90
10390;DHT22;5241;47.830;12.972;2022-07-17T03:38:34;12.70;99.90
10390;DHT22;5241;47.830;12.972;2022-07-17T03:41:00;12.70;99.90
10390;DHT22;5241;47.830;12.972;2022-07-17T03:43:25;12.50;99.90
10390;DHT22;5241;47.830;12.972;2022-07-17T03:45:51;12.40;99.90
10390;DHT22;5241;47.830;12.972;2022-07-17T03:48:17;12.40;99.90
10390;DHT22;5241;47.830;12.972;2022-07-17T03:50:42;12.40;99.90
10390;DHT22;5241;47.830;12.972;2022-07-17T03:53:08;12.30;99.90
10390;DHT22;5241;47.830;12.972;2022-07-17T03:55:33;12.30;99.90
10390;DHT22;5241;47.830;12.972;2022-07-17T03:57:59;12.40;99.90
10390;DHT22;5241;47.830;12.972;2022-07-17T04:00:25;12.50;99.90
10390;DHT22;5241;47.830;12.972;2022-07-17T04:02:50;12.50;99.90
10390;DHT22;5241;47.830;12.972;2022-07-17T04:05:16;12.40;99.90
10390;DHT22;5241;47.830;12.972;2022-07-17T04:07:42;12.40;99.90
10390;DHT22;5241;47.830;12.972;2022-07-17T04:10:10;12.40;99.90
10390;DHT22;5241;47.830;12.972;2022-07-17T04:12:37;12.40;99.90
10390;DHT22;5241;47.830;12.972;2022-07-17T04:15:04;12.40;99.90
10390;DHT22;5241;47.830;12.972;2022-07-17T04:17:30;12.50;99.90
10390;DHT22;5241;47.830;12.972;2022-07-17T04:19:55;12.60;99.90
10390;DHT22;5241;47.830;12.972;2022-07-17T04:22:21;12.50;99.90
10390;DHT22;5241;47.830;12.972;2022-07-17T04:24:47;12.60;99.90
10390;DHT22;5241;47.830;12.972;2022-07-17T04:27:13;12.60;99.90
10390;DHT22;5241;47.830;12.972;2022-07-17T04:29:39;12.70;99.90
10390;DHT22;5241;47.830;12.972;2022-07-17T04:32:05;12.80;99.90
10390;DHT22;5241;47.830;12.972;2022-07-17T04:34:31;12.80;99.90
10390;DHT22;5241;47.830;12.972;2022-07-17T04:36:58;12.90;99.90
10390;DHT22;5241;47.830;12.972;2022-07-17T04:39:24;13.00;99.90
10390;DHT22;5241;47.830;12.972;2022-07-17T04:41:50;13.00;99.90
10390;DHT22;5241;47.830;12.972;2022-07-17T04:44:16;13.20;99.90
10390;DHT22;5241;47.830;12.972;2022-07-17T04:46:41;13.30;99.90
10390;DHT22;5241;47.830;12.972;2022-07-17T04:49:07;13.30;99.90
10390;DHT22;5241;47.830;12.972;2022-07-17T04:51:32;13.50;99.90
10390;DHT22;5241;47.830;12.972;2022-07-17T04:53:58;13.60;99.90
10390;DHT22;5241;47.830;12.972;2022-07-17T04:56:23;13.80;99.90
10390;DHT22;5241;47.830;12.972;2022-07-17T04:58:49;13.90;99.90
10390;DHT22;5241;47.830;12.972;2022-07-17T05:01:15;14.20;99.90
10390;DHT22;5241;47.830;12.972;2022-07-17T05:03:40;14.30;99.90
10390;DHT22;5241;47.830;12.972;2022-07-17T05:06:06;14.40;99.90
10390;DHT22;5241;47.830;12.972;2022-07-17T05:08:33;14.60;99.90
10390;DHT22;5241;47.830;12.972;2022-07-17T05:10:58;14.70;99.90
10390;DHT22;5241;47.830;12.972;2022-07-17T05:13:24;15.00;99.90
10390;DHT22;5241;47.830;12.972;2022-07-17T05:15:50;15.10;99.90
10390;DHT22;5241;47.830;12.972;2022-07-17T05:18:16;15.40;99.90
10390;DHT22;5241;47.830;12.972;2022-07-17T05:20:41;15.70;99.90
10390;DHT22;5241;47.830;12.972;2022-07-17T05:23:07;16.00;99.90
10390;DHT22;5241;47.830;12.972;2022-07-17T05:25:33;16.20;99.90
10390;DHT22;5241;47.830;12.972;2022-07-17T05:27:58;16.50;99.90
10390;DHT22;5241;47.830;12.972;2022-07-17T05:30:24;16.80;99.90
10390;DHT22;5241;47.830;12.972;2022-07-17T05:32:50;17.20;99.90
10390;DHT22;5241;47.830;12.972;2022-07-17T05:35:15;17.40;99.90
10390;DHT22;5241;47.830;12.972;2022-07-17T05:37:41;17.50;99.90
10390;DHT22;5241;47.830;12.972;2022-07-17T05:40:07;18.20;99.90
10390;DHT22;5241;47.830;12.972;2022-07-17T05:42:34;18.90;99.90
10390;DHT22;5241;47.830;12.972;2022-07-17T05:45:00;19.60;99.90
10390;DHT22;5241;47.830;12.972;2022-07-17T05:47:25;19.90;99.90
10390;DHT22;5241;47.830;12.972;2022-07-17T05:49:51;20.50;98.50
10390;DHT22;5241;47.830;12.972;2022-07-17T05:52:16;20.90;96.70
10390;DHT22;5241;47.830;12.972;2022-07-17T05:54:42;21.10;95.20
10390;DHT22;5241;47.830;12.972;2022-07-17T05:57:08;21.40;94.30
10390;DHT22;5241;47.830;12.972;2022-07-17T05:59:34;21.60;92.90
10390;DHT22;5241;47.830;12.972;2022-07-17T06:02:00;21.90;91.80
10390;DHT22;5241;47.830;12.972;2022-07-17T06:04:25;22.40;91.40
10390;DHT22;5241;47.830;12.972;2022-07-17T06:06:51;22.40;90.60
10390;DHT22;5241;47.830;12.972;2022-07-17T06:09:17;22.80;88.50
10390;DHT22;5241;47.830;12.972;2022-07-17T06:11:42;22.60;86.10
10390;DHT22;5241;47.830;12.972;2022-07-17T06:14:08;22.90;85.30
10390;DHT22;5241;47.830;12.972;2022-07-17T06:16:33;23.30;83.70
10390;DHT22;5241;47.830;12.972;2022-07-17T06:18:59;23.10;82.90
10390;DHT22;5241;47.830;12.972;2022-07-17T06:21:24;23.30;80.70
10390;DHT22;5241;47.830;12.972;2022-07-17T06:23:50;23.50;80.40
10390;DHT22;5241;47.830;12.972;2022-07-17T06:26:16;23.80;78.60
10390;DHT22;5241;47.830;12.972;2022-07-17T06:28:42;23.40;79.00
10390;DHT22;5241;47.830;12.972;2022-07-17T06:31:07;23.60;76.70
10390;DHT22;5241;47.830;12.972;2022-07-17T06:33:33;23.60;77.70
10390;DHT22;5241;47.830;12.972;2022-07-17T06:35:58;23.70;78.20
10390;DHT22;5241;47.830;12.972;2022-07-17T06:38:24;24.10;74.50
10390;DHT22;5241;47.830;12.972;2022-07-17T06:40:50;24.10;75.10
10390;DHT22;5241;47.830;12.972;2022-07-17T06:43:15;24.30;73.70
10390;DHT22;5241;47.830;12.972;2022-07-17T06:45:41;24.80;71.60
10390;DHT22;5241;47.830;12.972;2022-07-17T06:48:06;24.80;72.10
10390;DHT22;5241;47.830;12.972;2022-07-17T06:50:34;24.60;72.30
10390;DHT22;5241;47.830;12.972;2022-07-17T06:53:00;24.60;71.00
10390;DHT22;5241;47.830;12.972;2022-07-17T06:55:25;24.50;71.40
10390;DHT22;5241;47.830;12.972;2022-07-17T06:57:51;24.90;70.60
10390;DHT22;5241;47.830;12.972;2022-07-17T07:00:16;25.20;70.00
10390;DHT22;5241;47.830;12.972;2022-07-17T07:02:44;25.40;67.50
10390;DHT22;5241;47.830;12.972;2022-07-17T07:05:09;25.20;68.40
10390;DHT22;5241;47.830;12.972;2022-07-17T07:07:35;25.60;67.90
10390;DHT22;5241;47.830;12.972;2022-07-17T07:10:00;25.60;68.30
10390;DHT22;5241;47.830;12.972;2022-07-17T07:12:26;25.30;70.60
10390;DHT22;5241;47.830;12.972;2022-07-17T07:14:52;25.30;67.80
10390;DHT22;5241;47.830;12.972;2022-07-17T07:17:18;25.50;69.10
10390;DHT22;5241;47.830;12.972;2022-07-17T07:19:44;25.70;68.10
10390;DHT22;5241;47.830;12.972;2022-07-17T07:22:10;26.10;66.50
10390;DHT22;5241;47.830;12.972;2022-07-17T07:24:35;26.50;65.00
10390;DHT22;5241;47.830;12.972;2022-07-17T07:27:01;26.70;64.50
10390;DHT22;5241;47.830;12.972;2022-07-17T07:29:27;27.10;61.90
10390;DHT22;5241;47.830;12.972;2022-07-17T07:31:52;26.70;63.70
10390;DHT22;5241;47.830;12.972;2022-07-17T07:34:18;26.50;63.60
10390;DHT22;5241;47.830;12.972;2022-07-17T07:36:43;25.50;66.40
10390;DHT22;5241;47.830;12.972;2022-07-17T07:39:09;25.60;67.50
10390;DHT22;5241;47.830;12.972;2022-07-17T07:41:34;25.90;66.60
10390;DHT22;5241;47.830;12.972;2022-07-17T07:44:00;26.30;64.70
10390;DHT22;5241;47.830;12.972;2022-07-17T07:46:25;26.20;66.10
10390;DHT22;5241;47.830;12.972;2022-07-17T07:48:51;26.00;65.70
10390;DHT22;5241;47.830;12.972;2022-07-17T07:51:17;26.60;64.80
10390;DHT22;5241;47.830;12.972;2022-07-17T07:53:42;27.10;62.40
10390;DHT22;5241;47.830;12.972;2022-07-17T07:56:08;27.60;62.80
10390;DHT22;5241;47.830;12.972;2022-07-17T07:58:33;27.30;61.00
10390;DHT22;5241;47.830;12.972;2022-07-17T08:00:59;26.80;61.60
10390;DHT22;5241;47.830;12.972;2022-07-17T08:03:24;25.90;65.40
10390;DHT22;5241;47.830;12.972;2022-07-17T08:05:50;26.00;64.80
10390;DHT22;5241;47.830;12.972;2022-07-17T08:08:16;26.00;63.80
10390;DHT22;5241;47.830;12.972;2022-07-17T08:10:41;26.50;66.00
10390;DHT22;5241;47.830;12.972;2022-07-17T08:13:07;27.40;63.20
10390;DHT22;5241;47.830;12.972;2022-07-17T08:15:33;27.80;59.70
10390;DHT22;5241;47.830;12.972;2022-07-17T08:17:58;27.90;60.50
10390;DHT22;5241;47.830;12.972;2022-07-17T08:20:25;28.20;58.20
10390;DHT22;5241;47.830;12.972;2022-07-17T08:22:51;28.20;54.70
10390;DHT22;5241;47.830;12.972;2022-07-17T08:25:17;27.90;56.30
10390;DHT22;5241;47.830;12.972;2022-07-17T08:27:44;27.60;55.20
10390;DHT22;5241;47.830;12.972;2022-07-17T08:30:12;28.50;57.80
10390;DHT22;5241;47.830;12.972;2022-07-17T08:32:38;28.00;57.60
10390;DHT22;5241;47.830;12.972;2022-07-17T08:35:04;28.70;56.90
10390;DHT22;5241;47.830;12.972;2022-07-17T08:37:30;27.80;57.90
10390;DHT22;5241;47.830;12.972;2022-07-17T08:39:56;27.50;59.50
10390;DHT22;5241;47.830;12.972;2022-07-17T08:42:22;27.60;59.90
10390;DHT22;5241;47.830;12.972;2022-07-17T08:44:48;27.50;60.90
10390;DHT22;5241;47.830;12.972;2022-07-17T08:47:15;27.50;62.50
10390;DHT22;5241;47.830;12.972;2022-07-17T08:49:46;27.70;58.70
10390;DHT22;5241;47.830;12.972;2022-07-17T08:52:13;27.50;59.30
10390;DHT22;5241;47.830;12.972;2022-07-17T08:54:39;27.40;61.40
10390;DHT22;5241;47.830;12.972;2022-07-17T08:57:05;27.50;59.30
10390;DHT22;5241;47.830;12.972;2022-07-17T08:59:31;27.80;58.40
10390;DHT22;5241;47.830;12.972;2022-07-17T09:01:58;27.30;60.20
10390;DHT22;5241;47.830;12.972;2022-07-17T09:04:24;26.80;59.40
10390;DHT22;5241;47.830;12.972;2022-07-17T09:07:04;27.20;61.20
10390;DHT22;5241;47.830;12.972;2022-07-17T09:09:30;27.40;57.30
10390;DHT22;5241;47.830;12.972;2022-07-17T09:11:57;28.00;55.80
10390;DHT22;5241;47.830;12.972;2022-07-17T09:14:39;28.00;57.00
10390;DHT22;5241;47.830;12.972;2022-07-17T09:17:07;28.20;56.90
10390;DHT22;5241;47.830;12.972;2022-07-17T09:19:41;27.80;55.40
10390;DHT22;5241;47.830;12.972;2022-07-17T09:22:25;28.00;54.50
10390;DHT22;5241;47.830;12.972;2022-07-17T09:24:56;27.80;57.50
10390;DHT22;5241;47.830;12.972;2022-07-17T09:29:54;28.50;57.40
10390;DHT22;5241;47.830;12.972;2022-07-17T09:32:21;28.00;57.80
10390;DHT22;5241;47.830;12.972;2022-07-17T09:34:49;27.80;55.50
10390;DHT22;5241;47.830;12.972;2022-07-17T09:37:15;27.90;55.60
10390;DHT22;5241;47.830;12.972;2022-07-17T09:39:40;28.10;54.40
10390;DHT22;5241;47.830;12.972;2022-07-17T09:42:07;28.20;53.40
10390;DHT22;5241;47.830;12.972;2022-07-17T09:44:32;28.50;53.90
10390;DHT22;5241;47.830;12.972;2022-07-17T09:46:59;28.50;56.00
10390;DHT22;5241;47.830;12.972;2022-07-17T09:49:26;28.30;55.00
10390;DHT22;5241;47.830;12.972;2022-07-17T09:51:53;28.20;55.90
10390;DHT22;5241;47.830;12.972;2022-07-17T09:54:21;28.70;57.10
10390;DHT22;5241;47.830;12.972;2022-07-17T09:56:50;28.60;55.80
10390;DHT22;5241;47.830;12.972;2022-07-17T09:59:17;28.60;56.70
10390;DHT22;5241;47.830;12.972;2022-07-17T10:01:44;28.50;55.70
10390;DHT22;5241;47.830;12.972;2022-07-17T10:04:11;28.10;56.60
10390;DHT22;5241;47.830;12.972;2022-07-17T10:06:37;28.30;53.80
10390;DHT22;5241;47.830;12.972;2022-07-17T10:09:04;28.40;54.40
10390;DHT22;5241;47.830;12.972;2022-07-17T10:11:33;28.00;55.00
10390;DHT22;5241;47.830;12.972;2022-07-17T10:14:11;28.00;54.90
10390;DHT22;5241;47.830;12.972;2022-07-17T10:16:37;28.70;56.50
10390;DHT22;5241;47.830;12.972;2022-07-17T10:21:55;29.50;51.70
10390;DHT22;5241;47.830;12.972;2022-07-17T10:24:21;29.30;52.70
10390;DHT22;5241;47.830;12.972;2022-07-17T10:26:47;29.10;52.90
10390;DHT22;5241;47.830;12.972;2022-07-17T10:29:28;29.10;53.70
10390;DHT22;5241;47.830;12.972;2022-07-17T10:31:54;29.40;55.50
10390;DHT22;5241;47.830;12.972;2022-07-17T10:34:45;30.00;53.10
10390;DHT22;5241;47.830;12.972;2022-07-17T10:37:23;29.70;51.70
10390;DHT22;5241;47.830;12.972;2022-07-17T10:40:19;29.80;50.20
10390;DHT22;5241;47.830;12.972;2022-07-17T10:45:27;30.20;50.20
10390;DHT22;5241;47.830;12.972;2022-07-17T10:47:57;30.20;49.70
10390;DHT22;5241;47.830;12.972;2022-07-17T10:50:26;29.90;51.20
10390;DHT22;5241;47.830;12.972;2022-07-17T10:53:30;29.60;52.80
10390;DHT22;5241;47.830;12.972;2022-07-17T10:56:03;30.20;50.50
10390;DHT22;5241;47.830;12.972;2022-07-17T10:58:33;30.10;49.90
10390;DHT22;5241;47.830;12.972;2022-07-17T11:01:03;29.50;52.00
10390;DHT22;5241;47.830;12.972;2022-07-17T11:03:30;29.70;49.70
10390;DHT22;5241;47.830;12.972;2022-07-17T11:06:10;30.00;51.90
10390;DHT22;5241;47.830;12.972;2022-07-17T11:08:44;30.20;50.60
10390;DHT22;5241;47.830;12.972;2022-07-17T11:11:10;29.90;49.60
10390;DHT22;5241;47.830;12.972;2022-07-17T11:13:36;29.90;50.60
10390;DHT22;5241;47.830;12.972;2022-07-17T11:16:02;30.00;49.50
10390;DHT22;5241;47.830;12.972;2022-07-17T11:18:27;30.10;49.40
10390;DHT22;5241;47.830;12.972;2022-07-17T11:20:58;30.10;51.10
10390;DHT22;5241;47.830;12.972;2022-07-17T11:23:26;30.50;49.70
10390;DHT22;5241;47.830;12.972;2022-07-17T11:28:32;30.40;49.50
10390;DHT22;5241;47.830;12.972;2022-07-17T11:30:59;30.40;49.80
10390;DHT22;5241;47.830;12.972;2022-07-17T11:33:25;30.50;49.60
10390;DHT22;5241;47.830;12.972;2022-07-17T11:35:51;30.20;49.90
10390;DHT22;5241;47.830;12.972;2022-07-17T11:38:24;30.60;50.40
10390;DHT22;5241;47.830;12.972;2022-07-17T11:40:50;30.80;48.90
10390;DHT22;5241;47.830;12.972;2022-07-17T11:43:16;31.10;48.00
10390;DHT22;5241;47.830;12.972;2022-07-17T11:45:42;30.80;48.70
10390;DHT22;5241;47.830;12.972;2022-07-17T11:48:08;30.80;48.40
10390;DHT22;5241;47.830;12.972;2022-07-17T11:50:34;30.70;48.20
10390;DHT22;5241;47.830;12.972;2022-07-17T11:53:02;30.20;50.40
10390;DHT22;5241;47.830;12.972;2022-07-17T11:55:39;30.20;48.40
10390;DHT22;5241;47.830;12.972;2022-07-17T11:58:05;30.40;49.70
10390;DHT22;5241;47.830;12.972;2022-07-17T12:00:33;31.20;47.30
10390;DHT22;5241;47.830;12.972;2022-07-17T12:03:06;31.70;46.90
10390;DHT22;5241;47.830;12.972;2022-07-17T12:05:34;31.50;47.90
10390;DHT22;5241;47.830;12.972;2022-07-17T12:08:00;30.60;46.90
10390;DHT22;5241;47.830;12.972;2022-07-17T12:10:28;30.40;47.80
10390;DHT22;5241;47.830;12.972;2022-07-17T12:12:56;30.80;47.10
10390;DHT22;5241;47.830;12.972;2022-07-17T12:18:00;31.40;46.30
10390;DHT22;5241;47.830;12.972;2022-07-17T12:20:26;31.90;46.30
10390;DHT22;5241;47.830;12.972;2022-07-17T12:23:04;32.30;45.40
10390;DHT22;5241;47.830;12.972;2022-07-17T12:25:30;32.30;46.00
10390;DHT22;5241;47.830;12.972;2022-07-17T12:27:55;31.60;46.60
10390;DHT22;5241;47.830;12.972;2022-07-17T12:30:21;31.20;45.70
10390;DHT22;5241;47.830;12.972;2022-07-17T12:32:47;31.90;45.20
10390;DHT22;5241;47.830;12.972;2022-07-17T12:35:15;32.30;47.20
10390;DHT22;5241;47.830;12.972;2022-07-17T12:37:41;32.20;44.50
10390;DHT22;5241;47.830;12.972;2022-07-17T12:40:07;32.20;45.70
10390;DHT22;5241;47.830;12.972;2022-07-17T12:42:33;31.70;45.90
10390;DHT22;5241;47.830;12.972;2022-07-17T12:44:59;31.40;45.90
10390;DHT22;5241;47.830;12.972;2022-07-17T12:47:24;31.90;48.30
10390;DHT22;5241;47.830;12.972;2022-07-17T12:49:50;31.60;47.30
10390;DHT22;5241;47.830;12.972;2022-07-17T12:52:15;31.50;46.20
10390;DHT22;5241;47.830;12.972;2022-07-17T12:54:41;31.30;47.60
10390;DHT22;5241;47.830;12.972;2022-07-17T12:57:06;31.50;48.10
10390;DHT22;5241;47.830;12.972;2022-07-17T12:59:33;31.30;46.90
10390;DHT22;5241;47.830;12.972;2022-07-17T13:01:58;31.60;47.30
10390;DHT22;5241;47.830;12.972;2022-07-17T13:04:24;32.50;45.70
10390;DHT22;5241;47.830;12.972;2022-07-17T13:06:50;32.50;46.60
10390;DHT22;5241;47.830;12.972;2022-07-17T13:09:15;32.60;45.10
10390;DHT22;5241;47.830;12.972;2022-07-17T13:11:42;32.60;44.20
10390;DHT22;5241;47.830;12.972;2022-07-17T13:14:08;31.20;48.30
10390;DHT22;5241;47.830;12.972;2022-07-17T13:16:37;32.00;46.00
10390;DHT22;5241;47.830;12.972;2022-07-17T13:19:03;32.00;45.30
10390;DHT22;5241;47.830;12.972;2022-07-17T13:21:30;32.00;44.90
10390;DHT22;5241;47.830;12.972;2022-07-17T13:23:56;32.40;44.90
10390;DHT22;5241;47.830;12.972;2022-07-17T13:26:21;32.00;44.50
10390;DHT22;5241;47.830;12.972;2022-07-17T13:28:47;32.10;46.00
10390;DHT22;5241;47.830;12.972;2022-07-17T13:31:12;32.70;44.50
10390;DHT22;5241;47.830;12.972;2022-07-17T13:33:38;33.20;42.90
10390;DHT22;5241;47.830;12.972;2022-07-17T13:36:04;33.90;43.70
10390;DHT22;5241;47.830;12.972;2022-07-17T13:38:29;32.80;43.70
10390;DHT22;5241;47.830;12.972;2022-07-17T13:40:55;32.20;46.60
10390;DHT22;5241;47.830;12.972;2022-07-17T13:43:20;32.10;44.30
10390;DHT22;5241;47.830;12.972;2022-07-17T13:45:46;33.20;43.80
10390;DHT22;5241;47.830;12.972;2022-07-17T13:48:12;32.70;43.90
10390;DHT22;5241;47.830;12.972;2022-07-17T13:50:40;31.90;45.70
10390;DHT22;5241;47.830;12.972;2022-07-17T13:53:06;31.90;47.20
10390;DHT22;5241;47.830;12.972;2022-07-17T13:55:32;32.70;43.50
10390;DHT22;5241;47.830;12.972;2022-07-17T13:57:57;32.90;43.50
10390;DHT22;5241;47.830;12.972;2022-07-17T14:00:24;32.50;45.50
10390;DHT22;5241;47.830;12.972;2022-07-17T14:02:49;32.00;45.30
10390;DHT22;5241;47.830;12.972;2022-07-17T14:05:15;32.10;44.40
10390;DHT22;5241;47.830;12.972;2022-07-17T14:07:40;32.10;45.00
10390;DHT22;5241;47.830;12.972;2022-07-17T14:10:07;32.20;44.10
10390;DHT22;5241;47.830;12.972;2022-07-17T14:12:32;31.80;45.80
10390;DHT22;5241;47.830;12.972;2022-07-17T14:14:58;32.30;45.00
10390;DHT22;5241;47.830;12.972;2022-07-17T14:17:24;32.70;44.00
10390;DHT22;5241;47.830;12.972;2022-07-17T14:19:50;33.00;43.90
10390;DHT22;5241;47.830;12.972;2022-07-17T14:22:16;33.00;41.50
10390;DHT22;5241;47.830;12.972;2022-07-17T14:24:41;33.30;41.50
10390;DHT22;5241;47.830;12.972;2022-07-17T14:27:07;33.00;44.10
10390;DHT22;5241;47.830;12.972;2022-07-17T14:29:32;32.50;43.30
10390;DHT22;5241;47.830;12.972;2022-07-17T14:31:58;32.80;43.20
10390;DHT22;5241;47.830;12.972;2022-07-17T14:34:23;33.20;42.30
10390;DHT22;5241;47.830;12.972;2022-07-17T14:36:49;33.60;41.00
10390;DHT22;5241;47.830;12.972;2022-07-17T14:39:15;33.00;44.20
10390;DHT22;5241;47.830;12.972;2022-07-17T14:41:40;32.80;44.80
10390;DHT22;5241;47.830;12.972;2022-07-17T14:44:06;32.60;41.70
10390;DHT22;5241;47.830;12.972;2022-07-17T14:46:32;33.30;43.00
10390;DHT22;5241;47.830;12.972;2022-07-17T14:48:57;33.10;42.10
10390;DHT22;5241;47.830;12.972;2022-07-17T14:51:23;33.50;40.40
10390;DHT22;5241;47.830;12.972;2022-07-17T14:53:48;33.40;41.70
10390;DHT22;5241;47.830;12.972;2022-07-17T14:56:14;32.80;42.10
10390;DHT22;5241;47.830;12.972;2022-07-17T14:58:40;32.30;43.60
10390;DHT22;5241;47.830;12.972;2022-07-17T15:01:06;32.00;43.30
10390;DHT22;5241;47.830;12.972;2022-07-17T15:03:33;32.00;41.10
10390;DHT22;5241;47.830;12.972;2022-07-17T15:05:59;32.10;42.30
10390;DHT22;5241;47.830;12.972;2022-07-17T15:08:24;31.70;43.80
10390;DHT22;5241;47.830;12.972;2022-07-17T15:10:50;32.20;43.40
10390;DHT22;5241;47.830;12.972;2022-07-17T15:13:16;32.20;41.10
10390;DHT22;5241;47.830;12.972;2022-07-17T15:15:42;31.50;43.80
10390;DHT22;5241;47.830;12.972;2022-07-17T15:18:07;32.10;40.80
10390;DHT22;5241;47.830;12.972;2022-07-17T15:20:33;32.30;41.00
10390;DHT22;5241;47.830;12.972;2022-07-17T15:22:58;32.80;39.70
10390;DHT22;5241;47.830;12.972;2022-07-17T15:25:24;33.00;39.20
10390;DHT22;5241;47.830;12.972;2022-07-17T15:27:49;33.00;40.60
10390;DHT22;5241;47.830;12.972;2022-07-17T15:30:15;32.40;42.20
10390;DHT22;5241;47.830;12.972;2022-07-17T15:32:40;32.00;42.70
10390;DHT22;5241;47.830;12.972;2022-07-17T15:35:06;31.90;42.60
10390;DHT22;5241;47.830;12.972;2022-07-17T15:37:32;31.70;42.80
10390;DHT22;5241;47.830;12.972;2022-07-17T15:39:58;32.60;40.20